Time;durP1;ratioP1;P1;durP2;ratioP2;P2;SDS_P1;SDS_P2;PMS_P1;PMS_P2;Temp;Humidity;BMP_temperature;BMP_pressure;BME280_temperature;BME280_humidity;BME280_pressure;Samples;Min_cycle;Max_cycle;Signal;HPM_P1;HPM_P2
2022/11/28 00:04:35;;;;;;;4.55;4.13;;;;;;;19.40;52.13;97135.69;10546713;28;20039;-45
2022/11/28 00:09:55;;;;;;;4.43;4.03;;;;;;;19.38;52.24;97137.91;10539031;28;20060;-48
2022/11/28 00:15:14;;;;;;;4.75;4.10;;;;;;;19.37;52.09;97125.53;10538561;28;20507;-48
2022/11/28 00:20:33;;;;;;;4.38;3.90;;;;;;;19.36;52.15;97118.50;10527941;28;20055;-48
2022/11/28 00:26:08;;;;;;;4.95;4.10;;;;;;;19.34;52.13;97113.41;10538744;28;20048;-47
2022/11/28 00:31:31;;;;;;;5.10;4.43;;;;;;;19.34;52.18;97115.34;10532190;28;20051;-45
2022/11/28 00:36:50;;;;;;;4.93;4.35;;;;;;;19.32;52.07;97117.56;10551815;28;20040;-49
2022/11/28 00:42:10;;;;;;;4.47;3.78;;;;;;;19.29;52.00;97113.59;10538180;28;20078;-48
2022/11/28 00:47:29;;;;;;;4.20;3.80;;;;;;;19.28;51.89;97114.69;10538359;28;20056;-45
2022/11/28 00:52:49;;;;;;;4.32;3.92;;;;;;;19.28;51.95;97116.59;10538077;28;20044;-47
2022/11/28 00:58:08;;;;;;;4.18;3.78;;;;;;;19.27;51.87;97117.72;10536757;28;20060;-45
2022/11/28 01:03:28;;;;;;;4.40;4.00;;;;;;;19.25;51.89;97098.31;10535257;28;20052;-47
2022/11/28 01:08:48;;;;;;;4.20;3.80;;;;;;;19.23;51.86;97095.94;10551612;28;20051;-46
2022/11/28 01:14:08;;;;;;;4.03;3.58;;;;;;;19.22;51.75;97093.53;10536916;28;20519;-47
2022/11/28 01:19:28;;;;;;;4.05;3.65;;;;;;;19.19;51.82;97086.88;10536766;28;20073;-47
2022/11/28 01:24:47;;;;;;;3.95;3.58;;;;;;;19.19;51.69;97072.56;10541199;28;20052;-45
2022/11/28 01:30:07;;;;;;;3.95;3.60;;;;;;;19.17;51.63;97056.69;10541845;28;20052;-48
2022/11/28 01:35:27;;;;;;;4.10;3.58;;;;;;;19.16;51.71;97065.88;10552680;28;20040;-47
2022/11/28 01:40:46;;;;;;;3.65;3.25;;;;;;;19.14;51.70;97050.00;10545030;28;20048;-45
2022/11/28 01:46:05;;;;;;;4.72;3.67;;;;;;;19.12;51.67;97033.31;10544947;28;20044;-45
2022/11/28 01:51:26;;;;;;;4.57;3.60;;;;;;;19.13;51.59;97031.41;10544898;28;20056;-47
2022/11/28 01:56:52;;;;;;;3.53;3.10;;;;;;;19.10;51.55;97032.84;10543699;28;20051;-46
2022/11/28 02:02:19;;;;;;;5.88;3.60;;;;;;;19.09;51.52;97023.16;10528473;28;20565;-49
2022/11/28 02:07:39;;;;;;;3.47;3.15;;;;;;;19.07;51.53;97025.38;10539247;28;20047;-45
2022/11/28 02:13:17;;;;;;;3.67;3.30;;;;;;;19.06;51.54;97020.28;10543630;28;20078;-45
2022/11/28 02:18:55;;;;;;;3.63;3.22;;;;;;;19.04;51.53;97020.59;10527969;28;20074;-46
2022/11/28 02:24:38;;;;;;;3.53;3.23;;;;;;;19.03;51.40;97007.41;10543193;28;20122;-47
2022/11/28 02:30:01;;;;;;;3.78;3.45;;;;;;;19.02;51.49;97000.44;10532220;28;20298;-45
2022/11/28 02:35:34;;;;;;;3.70;3.20;;;;;;;19.00;51.49;96995.34;10534966;28;20052;-46
2022/11/28 02:41:19;;;;;;;3.58;3.10;;;;;;;18.97;51.53;96998.66;10527694;28;20051;-45
2022/11/28 02:46:57;;;;;;;3.72;3.30;;;;;;;18.96;51.30;96999.78;10542603;28;20071;-46
2022/11/28 02:52:21;;;;;;;3.63;3.20;;;;;;;18.94;51.43;96999.31;10519245;28;20051;-46
2022/11/28 02:57:46;;;;;;;3.28;2.97;;;;;;;18.95;51.42;97006.28;10526042;27;20056;-45
2022/11/28 03:03:40;;;;;;;3.33;3.00;;;;;;;18.92;51.21;97002.31;10542015;28;20048;-45
2022/11/28 03:09:34;;;;;;;3.95;2.90;;;;;;;18.91;51.35;96997.22;10500344;28;20078;-47
2022/11/28 03:14:57;;;;;;;3.97;3.10;;;;;;;18.89;51.27;96991.34;10538206;28;20052;-45
2022/11/28 03:20:27;;;;;;;3.30;2.97;;;;;;;18.87;51.26;96999.75;10520296;28;20121;-45
2022/11/28 03:25:50;;;;;;;3.28;2.97;;;;;;;18.87;51.32;96996.25;10539183;28;20073;-45
2022/11/28 03:31:14;;;;;;;3.22;2.67;;;;;;;18.85;51.23;96995.78;10540008;28;20522;-48
2022/11/28 03:36:40;;;;;;;2.97;2.70;;;;;;;18.83;51.25;96992.59;10540609;28;20094;-47
2022/11/28 03:42:09;;;;;;;3.08;2.65;;;;;;;18.82;51.15;96982.91;10524462;28;20392;-48
2022/11/28 03:47:35;;;;;;;2.78;2.58;;;;;;;18.80;51.24;96988.63;10540160;28;20056;-47
2022/11/28 03:53:01;;;;;;;3.05;2.75;;;;;;;18.80;51.02;96979.72;10538533;28;20422;-45
2022/11/28 03:58:24;;;;;;;2.67;2.47;;;;;;;18.77;51.03;96981.91;10517349;28;20117;-46
2022/11/28 04:03:51;;;;;;;2.80;2.60;;;;;;;18.77;51.20;96967.63;10539449;28;20052;-47
2022/11/28 04:09:14;;;;;;;2.63;2.42;;;;;;;18.76;51.20;96963.34;10524489;28;20376;-48
2022/11/28 04:14:40;;;;;;;3.50;2.65;;;;;;;18.73;51.10;96955.88;10510961;28;20078;-46
2022/11/28 04:20:06;;;;;;;2.55;2.35;;;;;;;18.72;51.03;96955.09;10517628;28;20070;-48
2022/11/28 04:25:27;;;;;;;2.60;2.40;;;;;;;18.71;51.01;96958.09;10513690;28;20118;-47
2022/11/28 04:30:49;;;;;;;2.80;2.58;;;;;;;18.70;50.93;96951.91;10524595;28;20495;-45
2022/11/28 04:36:09;;;;;;;2.65;2.45;;;;;;;18.69;51.09;96955.72;10552242;28;20044;-45
2022/11/28 04:41:40;;;;;;;2.53;2.33;;;;;;;18.68;51.05;96962.22;10551971;28;20036;-47
2022/11/28 04:46:59;;;;;;;2.63;2.42;;;;;;;18.67;50.94;96957.94;10537986;28;20060;-46
2022/11/28 04:52:23;;;;;;;2.70;2.50;;;;;;;18.66;51.06;96950.13;10551712;28;20088;-47
2022/11/28 04:57:46;;;;;;;2.58;2.38;;;;;;;18.64;51.12;96946.97;10546709;27;20056;-47
2022/11/28 05:03:06;;;;;;;2.40;2.20;;;;;;;18.63;51.15;96940.00;10531366;28;20059;-46
2022/11/28 05:08:25;;;;;;;3.92;2.55;;;;;;;18.61;51.19;96940.31;10546604;28;20433;-46
2022/11/28 05:13:45;;;;;;;2.47;2.28;;;;;;;18.60;51.33;96933.28;10546541;28;20062;-45
2022/11/28 05:19:05;;;;;;;2.60;2.30;;;;;;;18.59;51.21;96931.72;10539878;28;20056;-46
2022/11/28 05:24:24;;;;;;;2.80;2.40;;;;;;;18.60;51.47;96933.28;10544841;28;20078;-45
2022/11/28 05:29:45;;;;;;;2.97;2.40;;;;;;;18.59;51.66;96918.22;10545928;28;20106;-48
2022/11/28 05:35:06;;;;;;;5.85;2.67;;;;;;;18.59;51.88;96904.75;10546093;28;20109;-47
2022/11/28 05:40:25;;;;;;;2.58;2.25;;;;;;;18.60;51.81;96898.22;10545193;28;20056;-45
2022/11/28 05:45:45;;;;;;;5.13;2.00;;;;;;;18.61;51.79;96894.44;10544375;28;20523;-45
2022/11/28 05:51:05;;;;;;;4.90;2.20;;;;;;;18.63;51.92;96897.59;10534343;28;20052;-45
2022/11/28 05:56:25;;;;;;;3.10;2.58;;;;;;;18.63;51.91;96897.59;10539087;28;20049;-47
2022/11/28 06:01:44;;;;;;;3.97;2.33;;;;;;;18.65;52.17;96900.00;10542161;28;20056;-45
2022/11/28 06:07:03;;;;;;;3.50;2.38;;;;;;;18.66;52.27;96901.56;10543504;28;20044;-45
2022/11/28 06:12:23;;;;;;;2.95;2.10;;;;;;;18.65;52.08;96903.47;10531779;28;20532;-44
2022/11/28 06:17:42;;;;;;;25.27;6.10;;;;;;;18.67;52.09;96914.75;10538500;28;20624;-46
2022/11/28 06:23:01;;;;;;;15.43;4.55;;;;;;;18.69;52.01;96907.13;10536576;28;20383;-47
2022/11/28 06:28:21;;;;;;;18.40;4.80;;;;;;;18.70;52.13;96914.13;10542987;28;20078;-45
2022/11/28 06:33:40;;;;;;;13.98;4.78;;;;;;;18.72;52.15;96905.72;10541167;28;20043;-48
2022/11/28 06:39:00;;;;;;;16.27;5.05;;;;;;;18.73;52.04;96916.19;10538034;28;20056;-48
2022/11/28 06:44:19;;;;;;;13.43;4.30;;;;;;;18.75;52.08;96907.78;10531216;28;20052;-46
2022/11/28 06:49:39;;;;;;;13.90;4.85;;;;;;;18.76;52.03;96907.47;10539960;28;20056;-45
2022/11/28 06:54:58;;;;;;;12.85;4.28;;;;;;;18.78;52.00;96902.53;10542167;28;20052;-46
2022/11/28 07:00:18;;;;;;;12.65;4.75;;;;;;;18.80;52.00;96893.34;10540358;28;20055;-46
2022/11/28 07:05:38;;;;;;;15.10;5.55;;;;;;;18.81;52.03;96897.66;10541664;28;20052;-47
2022/11/28 07:10:59;;;;;;;12.23;4.60;;;;;;;18.82;52.10;96904.63;10540968;28;20060;-46
2022/11/28 07:16:37;;;;;;;9.80;4.28;;;;;;;18.86;52.01;96905.63;10525166;28;20048;-45
2022/11/28 07:21:57;;;;;;;11.23;4.90;;;;;;;18.86;52.12;96906.41;10534176;28;20048;-46
2022/11/28 07:27:17;;;;;;;12.57;4.72;;;;;;;18.88;51.99;96898.78;10540312;28;20048;-45
2022/11/28 07:32:40;;;;;;;11.82;4.85;;;;;;;18.89;51.99;96894.16;10553911;28;20042;-45
2022/11/28 07:38:00;;;;;;;9.45;4.25;;;;;;;18.91;52.12;96895.41;10538994;28;20051;-48
2022/11/28 07:43:19;;;;;;;8.98;3.92;;;;;;;18.92;51.86;96888.94;10540123;28;20490;-47
2022/11/28 07:48:41;;;;;;;9.18;4.10;;;;;;;18.94;52.03;96881.31;10532036;28;20055;-44
2022/11/28 07:54:02;;;;;;;8.75;4.00;;;;;;;18.95;51.96;96876.69;10539988;28;20094;-45
2022/11/28 07:59:21;;;;;;;9.93;4.43;;;;;;;18.96;51.95;96881.78;10537962;28;20062;-45
2022/11/28 08:04:41;;;;;;;11.23;4.30;;;;;;;18.98;51.77;96892.25;10539668;28;20052;-45
2022/11/28 08:10:00;;;;;;;8.43;4.32;;;;;;;19.01;51.97;96890.81;10532961;28;20457;-45
2022/11/28 08:15:20;;;;;;;7.20;3.95;;;;;;;19.03;51.92;96888.59;10552920;28;20036;-47
2022/11/28 08:20:40;;;;;;;8.77;3.72;;;;;;;19.03;52.04;96881.28;10531623;28;20078;-46
2022/11/28 08:26:05;;;;;;;7.47;4.15;;;;;;;19.04;51.97;96874.78;10531654;28;20044;-47
2022/11/28 08:31:30;;;;;;;8.65;3.75;;;;;;;19.07;51.69;96874.16;10537992;28;20052;-46
2022/11/28 08:36:50;;;;;;;7.07;3.70;;;;;;;19.08;51.70;96870.34;10538454;28;20044;-44
2022/11/28 08:42:09;;;;;;;7.47;3.50;;;;;;;19.10;51.64;96865.41;10538090;28;20502;-45
2022/11/28 08:47:29;;;;;;;6.75;3.60;;;;;;;19.06;49.50;96867.16;10538189;28;20384;-48
2022/11/28 08:52:48;;;;;;;6.68;4.05;;;;;;;19.09;50.47;96861.13;10551366;28;20055;-46
2022/11/28 08:58:08;;;;;;;7.47;3.85;;;;;;;19.13;50.75;96853.16;10532847;28;20063;-48
2022/11/28 09:03:28;;;;;;;5.43;3.45;;;;;;;19.14;50.73;96836.66;10496187;28;20052;-49
2022/11/28 09:08:48;;;;;;;6.13;3.70;;;;;;;19.17;50.67;96849.53;10496339;28;20053;-47
2022/11/28 09:14:08;;;;;;;6.20;3.67;;;;;;;19.19;50.87;96843.00;10496050;28;20052;-46
2022/11/28 09:19:27;;;;;;;6.25;3.67;;;;;;;19.20;50.76;96839.19;10493632;28;20064;-47
2022/11/28 09:24:47;;;;;;;6.53;3.55;;;;;;;19.23;50.60;96838.53;10495420;28;20049;-45
2022/11/28 09:30:08;;;;;;;5.82;3.53;;;;;;;19.24;50.70;96829.34;10494195;28;20049;-46
2022/11/28 09:35:27;;;;;;;5.75;3.60;;;;;;;19.26;50.73;96824.41;10495209;28;20487;-47
2022/11/28 09:40:46;;;;;;;6.00;3.60;;;;;;;19.27;50.64;96826.00;10498784;28;20056;-46
2022/11/28 09:46:20;;;;;;;6.30;3.45;;;;;;;19.28;50.60;96820.25;10516403;28;20052;-48
2022/11/28 09:52:03;;;;;;;5.88;3.30;;;;;;;19.30;50.69;96817.25;10501976;28;20080;-48
2022/11/28 09:57:44;;;;;;;6.35;3.35;;;;;;;19.32;50.61;96801.50;10516089;28;20044;-47
2022/11/28 10:03:13;;;;;;;6.13;3.38;;;;;;;19.35;50.81;96784.66;10515742;28;20044;-45
2022/11/28 10:08:44;;;;;;;4.13;3.03;;;;;;;19.36;50.54;96778.13;10500541;28;20052;-45
2022/11/28 10:14:34;;;;;;;5.13;3.00;;;;;;;19.39;50.63;96788.31;10501976;28;20121;-46
2022/11/28 10:20:04;;;;;;;4.15;3.15;;;;;;;19.40;50.46;96784.47;10490808;28;20048;-45
2022/11/28 10:25:28;;;;;;;3.78;2.75;;;;;;;19.40;50.56;96786.38;10486412;28;20043;-46
2022/11/28 10:30:53;;;;;;;5.28;3.00;;;;;;;19.42;50.70;96792.25;10486472;28;20060;-46
2022/11/28 10:36:23;;;;;;;5.30;3.30;;;;;;;19.43;50.64;96778.44;10486628;28;20055;-48
2022/11/28 10:42:12;;;;;;;4.78;2.78;;;;;;;19.45;50.66;96780.81;10501321;28;20056;-46
2022/11/28 10:47:49;;;;;;;5.35;2.90;;;;;;;19.47;50.59;96775.88;10490792;28;20060;-47
2022/11/28 10:53:23;;;;;;;4.22;2.70;;;;;;;19.48;50.46;96780.97;10512522;28;20511;-49
2022/11/28 10:58:48;;;;;;;4.05;2.80;;;;;;;19.50;50.42;96783.31;10518468;28;20048;-48
2022/11/28 11:04:20;;;;;;;5.45;2.95;;;;;;;19.53;50.44;96771.88;10536596;28;20056;-48
2022/11/28 11:09:41;;;;;;;4.05;2.78;;;;;;;19.52;50.44;96776.50;10541717;28;20055;-46
2022/11/28 11:15:18;;;;;;;3.92;2.80;;;;;;;19.54;50.48;96768.88;10526522;28;20044;-45
2022/11/28 11:20:39;;;;;;;5.05;2.78;;;;;;;19.55;50.42;96775.84;10531502;28;20502;-45
2022/11/28 11:25:59;;;;;;;4.75;2.80;;;;;;;19.58;50.40;96770.91;10554453;28;20089;-45
2022/11/28 11:31:27;;;;;;;3.55;2.70;;;;;;;19.58;50.37;96768.97;10554214;28;20410;-45
2022/11/28 11:36:47;;;;;;;5.00;3.00;;;;;;;19.60;50.22;96772.19;10531968;28;20065;-46
2022/11/28 11:42:07;;;;;;;4.07;2.70;;;;;;;19.61;50.22;96760.25;10540642;28;20407;-46
2022/11/28 11:47:41;;;;;;;2.85;2.15;;;;;;;19.63;50.19;96762.63;10540418;28;20044;-47
2022/11/28 11:53:03;;;;;;;3.88;2.60;;;;;;;19.65;50.24;96747.66;10540127;28;20056;-45
2022/11/28 11:58:26;;;;;;;3.53;2.45;;;;;;;19.67;50.40;96755.44;10538131;28;20521;-47
2022/11/28 12:03:59;;;;;;;3.83;2.80;;;;;;;19.67;50.28;96733.81;10538467;28;20479;-48
2022/11/28 12:09:42;;;;;;;4.97;2.65;;;;;;;19.68;50.28;96741.63;10520518;28;20078;-47
2022/11/28 12:15:02;;;;;;;3.47;2.35;;;;;;;19.70;50.20;96722.38;10516441;28;20388;-45
2022/11/28 12:20:49;;;;;;;3.22;2.40;;;;;;;19.71;50.03;96742.88;10533252;28;20043;-46
2022/11/28 12:26:28;;;;;;;3.05;2.38;;;;;;;19.72;50.04;96730.97;10539017;28;20055;-47
2022/11/28 12:32:08;;;;;;;3.05;2.38;;;;;;;19.74;50.32;96734.16;10539188;28;20399;-46
2022/11/28 12:37:51;;;;;;;3.30;2.58;;;;;;;19.74;49.78;96729.53;10523091;28;20047;-47
2022/11/28 12:43:33;;;;;;;5.25;2.72;;;;;;;19.76;49.78;96734.59;10536542;28;20040;-45
2022/11/28 12:49:07;;;;;;;8.23;3.45;;;;;;;19.78;50.68;96731.56;10537782;28;20059;-45
2022/11/28 12:54:39;;;;;;;7.13;3.70;;;;;;;19.82;51.88;96736.00;10523229;28;20403;-48
2022/11/28 13:00:10;;;;;;;5.85;2.80;;;;;;;19.84;52.58;96720.25;10536912;28;20106;-46
2022/11/28 13:06:14;;;;;;;4.03;2.63;;;;;;;19.85;52.52;96716.41;10537871;28;20048;-48
2022/11/28 13:11:39;;;;;;;6.65;2.90;;;;;;;19.86;52.63;96719.94;10377237;28;20050;-45
2022/11/28 13:17:16;;;;;;;3.92;2.50;;;;;;;19.86;52.42;96715.31;10521989;28;20421;-45
2022/11/28 13:22:42;;;;;;;3.80;2.40;;;;;;;19.89;52.20;96708.44;10558249;28;20040;-45
2022/11/28 13:28:39;;;;;;;5.07;2.97;;;;;;;19.88;51.73;96699.53;10559439;28;20040;-48
2022/11/28 13:33:59;;;;;;;5.75;2.53;;;;;;;19.90;51.97;96710.03;10545698;28;20048;-48
2022/11/28 13:39:28;;;;;;;4.20;2.55;;;;;;;19.91;51.75;96704.28;10545484;28;20410;-47
2022/11/28 13:44:59;;;;;;;4.43;2.60;;;;;;;19.92;52.37;96708.56;10545191;28;20105;-49
2022/11/28 13:50:21;;;;;;;4.63;2.55;;;;;;;19.93;52.06;96704.78;10544346;28;20056;-46
2022/11/28 13:55:46;;;;;;;5.00;2.40;;;;;;;19.95;51.95;96707.13;10538936;28;20059;-48
2022/11/28 14:01:28;;;;;;;6.15;2.50;;;;;;;19.95;51.75;96702.53;10543347;28;20129;-47
2022/11/28 14:07:06;;;;;;;5.65;2.55;;;;;;;19.96;51.79;96700.59;10544107;28;20048;-49
2022/11/28 14:12:48;;;;;;;3.67;2.80;;;;;;;19.97;51.29;96695.97;10529125;28;20059;-48
2022/11/28 14:18:38;;;;;;;7.10;3.05;;;;;;;19.99;51.27;96708.03;10515960;28;20474;-50
2022/11/28 14:24:35;;;;;;;7.57;3.33;;;;;;;19.99;51.14;96707.25;10557247;28;20040;-50
2022/11/28 14:29:56;;;;;;;6.00;3.50;;;;;;;20.00;51.17;96714.25;10519675;28;20503;-50
2022/11/28 14:35:53;;;;;;;9.85;3.67;;;;;;;19.99;50.89;96713.44;10556723;28;20047;-46
2022/11/28 14:41:14;;;;;;;6.43;3.17;;;;;;;20.02;51.22;96714.72;10556681;28;20507;-48
2022/11/28 14:47:14;;;;;;;8.80;3.38;;;;;;;20.01;50.82;96718.53;10513018;28;20430;-46
2022/11/28 14:52:42;;;;;;;6.88;3.17;;;;;;;20.01;50.89;96710.44;10535959;28;20052;-47
2022/11/28 14:58:04;;;;;;;6.80;3.10;;;;;;;20.01;51.01;96716.63;10526019;28;20060;-46
2022/11/28 15:03:36;;;;;;;8.77;3.72;;;;;;;20.02;50.92;96733.66;10552782;28;20449;-50
2022/11/28 15:08:59;;;;;;;7.03;3.10;;;;;;;20.03;50.93;96737.94;10520239;28;20052;-48
2022/11/28 15:14:21;;;;;;;7.57;3.67;;;;;;;20.02;50.89;96736.34;10526696;28;20048;-48
2022/11/28 15:19:47;;;;;;;5.85;3.35;;;;;;;20.02;50.65;96747.97;10524068;28;20052;-48
2022/11/28 15:25:21;;;;;;;8.00;3.58;;;;;;;20.03;50.54;96740.63;10507775;28;20052;-49
2022/11/28 15:30:45;;;;;;;7.85;4.10;;;;;;;20.03;50.68;96746.84;10526102;28;20056;-50
2022/11/28 15:36:14;;;;;;;6.60;3.58;;;;;;;20.05;50.95;96747.31;10525747;28;20063;-48
2022/11/28 15:41:37;;;;;;;6.25;3.38;;;;;;;20.06;50.81;96742.69;10512521;28;20127;-48
2022/11/28 15:46:57;;;;;;;5.95;3.38;;;;;;;20.07;50.94;96747.78;10540982;28;20178;-48
2022/11/28 15:52:19;;;;;;;6.45;3.30;;;;;;;20.08;51.15;96753.97;10525071;28;20064;-48
2022/11/28 15:57:39;;;;;;;7.00;3.15;;;;;;;20.08;50.78;96748.56;10537189;28;20491;-47
2022/11/28 16:02:59;;;;;;;4.18;2.78;;;;;;;20.09;51.08;96744.72;10523929;28;20073;-48
2022/11/28 16:08:36;;;;;;;6.10;3.03;;;;;;;20.09;50.90;96742.84;10538147;28;20407;-50
2022/11/28 16:13:58;;;;;;;4.70;2.90;;;;;;;20.10;51.11;96740.91;10539557;28;20048;-54
2022/11/28 16:19:27;;;;;;;10.23;3.83;;;;;;;20.12;50.16;96738.66;10552484;28;20040;-48
2022/11/28 16:24:49;;;;;;;7.68;3.45;;;;;;;20.11;50.51;96737.88;10520832;28;20396;-50
2022/11/28 16:30:21;;;;;;;6.47;3.17;;;;;;;20.13;50.65;96729.41;10523752;28;20465;-48
2022/11/28 16:35:41;;;;;;;6.00;3.25;;;;;;;20.14;50.87;96733.72;10529759;28;20052;-56
2022/11/28 16:41:00;;;;;;;6.07;3.45;;;;;;;20.15;50.15;96710.97;10538791;28;20418;-48
2022/11/28 16:46:23;;;;;;;7.28;4.28;;;;;;;20.15;49.85;96719.88;10538923;28;20056;-44
2022/11/28 16:51:43;;;;;;;11.30;5.75;;;;;;;20.18;51.02;96740.06;10522337;28;20538;-55
2022/11/28 16:57:08;;;;;;;13.07;5.30;;;;;;;20.20;51.13;96739.72;10536956;28;20056;-49
2022/11/28 17:02:28;;;;;;;25.33;10.23;;;;;;;20.22;51.84;96737.50;10497611;28;20056;-50
2022/11/28 17:07:48;;;;;;;16.40;8.10;;;;;;;20.24;51.73;96729.84;10501651;28;20113;-61
2022/11/28 17:13:08;;;;;;;13.20;7.28;;;;;;;20.26;51.53;96731.06;10495472;28;20060;-59
2022/11/28 17:18:27;;;;;;;12.60;6.60;;;;;;;20.28;51.59;96728.03;10488192;28;20053;-58
2022/11/28 17:23:47;;;;;;;12.20;6.28;;;;;;;20.28;51.80;96728.84;10495044;28;20381;-57
2022/11/28 17:29:10;;;;;;;12.45;6.03;;;;;;;20.28;51.76;96715.31;10496145;28;20064;-56
2022/11/28 17:34:32;;;;;;;12.23;5.95;;;;;;;20.28;51.75;96723.41;10495677;28;20072;-56
2022/11/28 17:45:32;;;;;;;10.55;5.50;;;;;;;20.28;51.45;96736.94;10494808;28;20118;-57
2022/11/28 17:50:52;;;;;;;7.07;4.78;;;;;;;20.30;51.48;96739.31;10493791;28;20511;-57
2022/11/28 17:56:12;;;;;;;9.15;4.97;;;;;;;20.29;51.59;96732.34;10494275;28;20052;-59
2022/11/28 18:01:32;;;;;;;7.97;4.80;;;;;;;20.28;51.43;96733.47;10529355;28;20055;-60
2022/11/28 18:06:52;;;;;;;7.20;4.75;;;;;;;20.29;51.41;96732.34;10530774;28;20044;-60
2022/11/28 18:12:12;;;;;;;8.88;4.53;;;;;;;20.28;51.49;96731.53;10543626;28;20052;-60
2022/11/28 18:17:32;;;;;;;10.45;4.70;;;;;;;20.27;51.48;96731.88;10526381;28;20475;-62
2022/11/28 18:22:51;;;;;;;6.57;4.35;;;;;;;20.26;51.41;96733.78;10550020;28;20449;-60
2022/11/28 18:28:13;;;;;;;7.38;4.97;;;;;;;20.27;51.28;96729.97;10556674;28;20517;-49
2022/11/28 18:33:33;;;;;;;6.55;4.47;;;;;;;20.25;51.24;96720.59;10543306;28;20051;-50
2022/11/28 18:38:54;;;;;;;6.75;4.65;;;;;;;20.25;51.29;96718.69;10527870;28;20055;-48
2022/11/28 18:44:15;;;;;;;7.60;4.50;;;;;;;20.25;51.44;96715.97;10531916;28;20112;-49
2022/11/28 18:49:35;;;;;;;9.90;4.50;;;;;;;20.24;51.54;96698.16;10542512;28;20109;-52
2022/11/28 18:54:56;;;;;;;9.45;4.43;;;;;;;20.23;51.49;96702.00;10527243;28;20048;-47
2022/11/28 19:00:15;;;;;;;6.38;4.32;;;;;;;20.23;51.43;96707.41;10532257;28;20055;-49
2022/11/28 19:05:40;;;;;;;6.15;4.60;;;;;;;20.22;51.46;96713.94;10524701;28;20052;-49
2022/11/28 19:11:09;;;;;;;6.88;4.30;;;;;;;20.21;51.32;96711.53;10555071;28;20047;-46
2022/11/28 19:16:31;;;;;;;5.65;3.88;;;;;;;20.21;51.35;96714.25;10541681;28;20051;-49
2022/11/28 19:21:50;;;;;;;10.00;4.22;;;;;;;20.19;51.34;96727.31;10535771;28;20135;-50
2022/11/28 19:27:10;;;;;;;6.60;3.97;;;;;;;20.19;51.18;96727.31;10554033;28;20441;-50
2022/11/28 19:32:30;;;;;;;6.65;4.28;;;;;;;20.17;51.27;96716.84;10554604;28;20043;-51
2022/11/28 19:37:50;;;;;;;10.95;3.72;;;;;;;20.16;51.23;96717.94;10540746;28;20075;-51
2022/11/28 19:43:10;;;;;;;7.68;4.20;;;;;;;20.14;51.19;96710.16;10524846;28;20499;-47
2022/11/28 19:48:31;;;;;;;5.80;3.85;;;;;;;20.13;51.24;96707.78;10525223;28;20392;-50
2022/11/28 19:53:51;;;;;;;7.75;4.20;;;;;;;20.12;51.08;96706.22;10527561;28;20052;-50
2022/11/28 19:59:12;;;;;;;6.38;3.95;;;;;;;20.12;51.22;96708.91;10525655;28;20070;-50
2022/11/28 20:04:31;;;;;;;5.68;4.13;;;;;;;20.12;51.21;96711.63;10497860;28;20052;-49
2022/11/28 20:09:51;;;;;;;5.65;3.63;;;;;;;20.09;51.29;96709.56;10510034;28;20400;-48
2022/11/28 20:15:11;;;;;;;6.43;4.03;;;;;;;20.09;51.34;96709.56;10510793;28;20048;-49
2022/11/28 20:20:32;;;;;;;6.13;4.10;;;;;;;20.09;51.34;96720.38;10484709;28;20123;-48
2022/11/28 20:25:52;;;;;;;4.35;3.42;;;;;;;20.07;51.13;96736.16;10496553;28;20110;-50
2022/11/28 20:31:18;;;;;;;5.15;3.83;;;;;;;20.06;51.70;96737.28;10497024;28;20063;-50
2022/11/28 20:36:38;;;;;;;14.95;6.80;;;;;;;20.04;51.82;96734.13;10496025;28;20052;-51
2022/11/28 20:41:58;;;;;;;9.60;4.82;;;;;;;20.03;51.82;96733.34;10503245;28;20052;-50
2022/11/28 20:47:18;;;;;;;8.90;4.65;;;;;;;20.02;51.70;96736.34;10488213;28;20056;-50
2022/11/28 20:52:37;;;;;;;10.93;4.60;;;;;;;20.01;51.77;96740.16;10483837;28;20492;-49
2022/11/28 20:57:57;;;;;;;8.50;4.55;;;;;;;20.00;51.88;96741.31;10496152;28;20044;-49
2022/11/28 21:03:16;;;;;;;10.57;4.65;;;;;;;19.98;52.03;96741.63;10537909;28;20060;-52
2022/11/28 21:08:36;;;;;;;6.72;4.00;;;;;;;19.97;52.05;96747.34;10522625;28;20059;-49
2022/11/28 21:13:56;;;;;;;10.30;4.38;;;;;;;19.97;52.07;96752.75;10530331;28;20105;-50
2022/11/28 21:19:15;;;;;;;8.27;4.20;;;;;;;19.94;51.99;96752.31;10535730;28;20063;-50
2022/11/28 21:24:35;;;;;;;7.57;4.05;;;;;;;19.92;52.05;96748.34;10536182;28;20437;-52
2022/11/28 21:29:54;;;;;;;6.57;4.03;;;;;;;19.91;52.22;96749.44;10522190;28;20452;-51
2022/11/28 21:35:14;;;;;;;8.68;4.00;;;;;;;19.89;52.24;96747.06;10538609;28;20059;-50
2022/11/28 21:40:34;;;;;;;7.47;4.07;;;;;;;19.89;52.20;96752.47;10545616;28;20117;-50
2022/11/28 21:45:54;;;;;;;6.60;4.00;;;;;;;19.88;52.56;96744.72;10537411;28;20055;-49
2022/11/28 21:51:22;;;;;;;5.70;3.88;;;;;;;19.86;52.62;96739.63;10525329;28;20063;-50
2022/11/28 21:56:42;;;;;;;7.43;4.00;;;;;;;19.84;52.64;96736.47;10551801;28;20093;-50
2022/11/28 22:02:01;;;;;;;9.13;4.18;;;;;;;19.82;52.65;96744.13;10532922;28;20056;-50
2022/11/28 22:07:21;;;;;;;9.05;3.58;;;;;;;19.83;52.81;96739.50;10557884;28;20411;-50
2022/11/28 22:12:46;;;;;;;7.95;4.28;;;;;;;19.80;53.00;96740.13;10528177;28;20052;-50
2022/11/28 22:18:06;;;;;;;6.20;3.80;;;;;;;19.80;52.91;96742.84;10543672;28;20056;-51
2022/11/28 22:23:26;;;;;;;8.00;3.80;;;;;;;19.77;52.90;96747.00;10556996;28;20051;-50
2022/11/28 22:28:45;;;;;;;6.32;3.75;;;;;;;19.77;52.82;96743.50;10528535;28;20067;-50
2022/11/28 22:34:04;;;;;;;6.28;3.72;;;;;;;19.75;52.96;96739.19;10517703;28;20047;-51
2022/11/28 22:39:24;;;;;;;6.68;4.18;;;;;;;19.74;52.90;96742.25;10541656;28;20040;-48
2022/11/28 22:44:45;;;;;;;5.82;3.70;;;;;;;19.73;53.05;96738.75;10556388;28;20475;-50
2022/11/28 22:50:06;;;;;;;5.80;3.42;;;;;;;19.71;53.06;96746.38;10500031;28;20082;-50
2022/11/28 22:55:26;;;;;;;5.57;3.58;;;;;;;19.69;52.94;96748.59;10556340;28;20106;-49
2022/11/28 23:00:46;;;;;;;7.05;4.10;;;;;;;19.68;52.81;96751.59;10540724;28;20063;-50
2022/11/28 23:06:10;;;;;;;5.60;3.40;;;;;;;19.66;52.83;96754.66;10531380;28;20075;-49
2022/11/28 23:11:31;;;;;;;6.00;3.45;;;;;;;19.65;52.85;96752.28;10502930;28;20048;-50
2022/11/28 23:16:51;;;;;;;5.50;3.50;;;;;;;19.63;52.85;96752.59;10541814;28;20075;-50
2022/11/28 23:22:11;;;;;;;6.22;3.30;;;;;;;19.63;52.85;96752.59;10539546;28;20044;-50
2022/11/28 23:27:32;;;;;;;6.88;3.50;;;;;;;19.61;52.88;96745.94;10525401;28;20044;-49
2022/11/28 23:32:51;;;;;;;5.00;3.40;;;;;;;19.61;52.74;96754.06;10519213;28;20048;-51
2022/11/28 23:38:11;;;;;;;5.60;3.28;;;;;;;19.58;52.55;96758.19;10541133;28;20055;-51
2022/11/28 23:43:31;;;;;;;5.38;3.25;;;;;;;19.57;52.71;96753.91;10541269;28;20126;-50
2022/11/28 23:48:51;;;;;;;3.75;2.90;;;;;;;19.56;52.56;96753.13;10540587;28;20059;-50
2022/11/28 23:54:11;;;;;;;5.00;2.88;;;;;;;19.54;52.61;96749.94;10539756;28;20048;-50
2022/11/28 23:59:31;;;;;;;5.68;3.13;;;;;;;19.53;52.47;96750.28;10536183;28;20059;-50
